Time;durP1;ratioP1;P1;durP2;ratioP2;P2;SDS_P1;SDS_P2;PMS_P1;PMS_P2;Temp;Humidity;BMP_temperature;BMP_pressure;BME280_temperature;BME280_humidity;BME280_pressure;Samples;Min_cycle;Max_cycle;Signal;HPM_P1;HPM_P2
2023/04/30 00:01:37;;;;;;;;;30.00;28.67;;;;;16.60;82.14;101584.41;5078309;28;45311;-76
2023/04/30 00:04:02;;;;;;;;;32.00;30.67;;;;;16.60;83.66;101595.97;5099416;27;45393;-78
2023/04/30 00:06:27;;;;;;;;;32.33;30.00;;;;;16.65;83.05;101609.63;5099792;27;45591;-76
2023/04/30 00:08:53;;;;;;;;;37.00;32.67;;;;;16.64;83.23;101610.66;5099638;27;45353;-76
2023/04/30 00:11:18;;;;;;;;;32.33;30.00;;;;;16.47;nan;101583.28;5099876;27;45305;-79
2023/04/30 00:13:43;;;;;;;;;26.67;26.00;;;;;16.51;83.39;101597.97;5099830;27;45321;-78
2023/04/30 00:16:10;;;;;;;;;31.33;30.00;;;;;16.56;82.31;101594.72;5100115;27;46109;-77
2023/04/30 00:18:35;;;;;;;;;31.00;30.33;;;;;16.55;83.17;101592.22;5099435;27;45468;-77
2023/04/30 00:21:00;;;;;;;;;28.67;27.33;;;;;16.67;83.08;101617.47;5099814;27;45390;-77
2023/04/30 00:23:26;;;;;;;;;32.33;28.33;;;;;16.56;83.45;101609.97;5100534;27;45378;-78
2023/04/30 00:25:51;;;;;;;;;35.33;32.00;;;;;16.39;84.25;101586.94;5100256;27;46296;-77
2023/04/30 00:28:16;;;;;;;;;32.67;30.33;;;;;16.50;83.73;101600.84;5099724;27;45395;-77
2023/04/30 00:30:42;;;;;;;;;30.00;29.00;;;;;16.48;84.20;101614.44;5099748;27;45308;-78
2023/04/30 00:33:07;;;;;;;;;31.33;31.00;;;;;16.42;84.28;101604.47;5100818;27;46195;-78
2023/04/30 00:35:32;;;;;;;;;36.00;30.33;;;;;16.20;83.62;101575.00;5100262;27;46051;-77
2023/04/30 00:37:58;;;;;;;;;31.33;30.33;;;;;16.35;84.32;101599.06;5084504;27;45851;-76
2023/04/30 00:40:23;;;;;;;;;31.33;29.33;;;;;16.32;83.75;101596.78;5102838;27;48978;-76
2023/04/30 00:42:51;;;;;;;;;31.33;31.00;;;;;16.22;84.35;101593.56;5103033;27;45515;-77
2023/04/30 00:45:20;;;;;;;;;28.67;28.67;;;;;16.10;84.03;101587.88;5103083;27;46309;-77
2023/04/30 00:47:46;;;;;;;;;32.00;29.00;;;;;16.18;84.03;101590.44;5102827;27;45481;-78
2023/04/30 00:50:14;;;;;;;;;34.00;30.33;;;;;15.98;84.37;101571.47;5103108;27;45309;-77
2023/04/30 00:52:40;;;;;;;;;30.33;28.00;;;;;15.97;85.14;101580.50;5102777;27;46388;-79
2023/04/30 00:55:06;;;;;;;;;29.00;27.67;;;;;15.97;85.13;101597.44;5084760;27;48130;-77
2023/04/30 00:57:33;;;;;;;;;29.33;27.33;;;;;15.88;85.57;101580.63;5084124;27;45398;-78
2023/04/30 00:59:58;;;;;;;;;29.33;27.33;;;;;15.85;85.87;101585.50;5102578;27;45329;-77
2023/04/30 01:02:24;;;;;;;;;28.67;28.00;;;;;15.80;85.69;101571.88;5103037;27;45373;-77
2023/04/30 01:04:49;;;;;;;;;34.33;31.33;;;;;15.75;85.79;101564.38;5102504;27;45474;-78
2023/04/30 01:07:15;;;;;;;;;36.00;31.67;;;;;15.77;86.27;101579.25;5102624;27;53300;-78
2023/04/30 01:09:40;;;;;;;;;33.00;30.67;;;;;15.73;86.60;101580.66;5101841;27;45406;-78
2023/04/30 01:12:28;;;;;;;;;34.33;32.00;;;;;15.72;86.23;101581.69;5103047;27;45527;-77
2023/04/30 01:14:59;;;;;;;;;33.00;30.00;;;;;15.74;86.33;101586.81;5103015;27;46177;-78
2023/04/30 01:17:24;;;;;;;;;27.00;25.33;;;;;15.71;87.48;101587.22;5103092;27;45457;-78
2023/04/30 01:19:50;;;;;;;;;29.67;26.67;;;;;15.72;87.51;101592.41;5102479;27;45452;-78
2023/04/30 01:22:34;;;;;;;;;30.67;29.00;;;;;15.69;87.54;101586.56;5102711;27;45515;-77
2023/04/30 01:25:36;;;;;;;;;30.00;29.00;;;;;15.67;87.28;101581.41;5102718;27;45988;-78
2023/04/30 01:28:13;;;;;;;;;36.00;32.33;;;;;15.58;87.39;101569.13;5084037;27;45409;-78
2023/04/30 01:30:43;;;;;;;;;30.33;28.00;;;;;15.64;87.52;101579.09;5102645;27;45365;-78
2023/04/30 01:33:09;;;;;;;;;31.67;29.33;;;;;15.64;87.60;101573.72;5102130;27;45345;-78
2023/04/30 01:36:01;;;;;;;;;31.67;30.67;;;;;15.62;87.39;101576.59;5102532;27;45696;-77
2023/04/30 01:38:33;;;;;;;;;25.00;24.33;;;;;15.65;87.12;101578.91;5076208;27;46090;-78
2023/04/30 01:41:04;;;;;;;;;31.67;28.00;;;;;15.68;86.90;101575.00;5102635;27;45402;-78
2023/04/30 01:43:54;;;;;;;;;31.33;29.00;;;;;15.66;86.88;101577.06;5102270;27;45357;-78
2023/04/30 01:46:27;;;;;;;;;31.00;28.67;;;;;15.59;86.62;101563.56;5083590;27;48126;-78
2023/04/30 01:49:07;;;;;;;;;36.00;30.33;;;;;15.59;87.35;101565.44;5083744;27;46355;-77
2023/04/30 01:51:40;;;;;;;;;29.00;27.00;;;;;15.51;87.40;101571.72;5094953;27;45291;-78
2023/04/30 01:54:15;;;;;;;;;32.33;30.00;;;;;15.47;87.62;101571.25;5083586;27;46971;-78
2023/04/30 01:56:49;;;;;;;;;32.33;29.33;;;;;15.44;87.83;101568.16;5102177;27;46125;-78
2023/04/30 01:59:15;;;;;;;;;24.00;23.00;;;;;15.40;88.34;101570.34;5083376;27;45454;-78
2023/04/30 02:01:40;;;;;;;;;33.33;31.00;;;;;15.42;87.77;101572.84;5083835;27;45390;-78
2023/04/30 02:04:05;;;;;;;;;30.33;29.33;;;;;15.38;87.96;101573.22;5082811;27;60037;-77
2023/04/30 02:06:32;;;;;;;;;33.67;32.00;;;;;15.40;88.11;101581.91;5083184;27;56839;-78
2023/04/30 02:09:01;;;;;;;;;35.00;32.67;;;;;15.40;88.03;101575.72;5102217;27;45269;-78
2023/04/30 02:11:28;;;;;;;;;28.33;25.00;;;;;15.39;88.56;101572.19;5102120;27;45387;-78
2023/04/30 02:13:53;;;;;;;;;27.67;26.67;;;;;15.37;88.54;101576.91;5083483;27;46269;-78
2023/04/30 02:16:19;;;;;;;;;27.33;26.33;;;;;15.31;88.58;101563.41;5101579;27;52405;-78
2023/04/30 02:18:45;;;;;;;;;34.00;32.67;;;;;15.37;88.96;101578.75;5083243;27;45268;-78
2023/04/30 02:21:10;;;;;;;;;31.33;31.00;;;;;15.26;88.48;101562.13;5083429;27;45359;-79
2023/04/30 02:23:36;;;;;;;;;38.67;34.00;;;;;15.40;88.97;101591.78;5101609;27;45338;-78
2023/04/30 02:26:02;;;;;;;;;34.00;31.00;;;;;15.37;89.24;101581.44;5082701;27;62747;-78
2023/04/30 02:28:27;;;;;;;;;31.67;31.33;;;;;15.30;89.01;101573.31;5101682;27;45275;-78
2023/04/30 02:30:52;;;;;;;;;37.33;31.33;;;;;15.33;89.63;101572.97;5101806;27;45220;-78
2023/04/30 02:33:18;;;;;;;;;30.00;26.33;;;;;15.23;89.87;101564.34;5081995;27;46373;-77
2023/04/30 02:35:43;;;;;;;;;31.33;31.00;;;;;15.35;89.74;101581.63;5101534;27;45765;-78
2023/04/30 02:38:08;;;;;;;;;34.33;31.67;;;;;15.33;89.71;101572.13;5081016;27;45924;-77
2023/04/30 02:40:34;;;;;;;;;28.67;27.33;;;;;15.32;89.66;101571.28;5079791;28;45367;-77
2023/04/30 02:43:00;;;;;;;;;32.33;31.00;;;;;15.35;89.44;101570.91;5077772;27;51003;-77
2023/04/30 02:45:25;;;;;;;;;29.00;28.33;;;;;15.41;89.24;101582.72;5101552;27;46543;-77
2023/04/30 02:47:51;;;;;;;;;31.33;28.33;;;;;15.34;89.39;101576.44;5101018;27;45340;-77
2023/04/30 02:50:16;;;;;;;;;34.00;32.00;;;;;15.27;89.43;101558.44;5082745;27;52412;-77
2023/04/30 02:52:43;;;;;;;;;34.00;28.67;;;;;15.27;89.65;101568.34;5101482;27;45215;-78
2023/04/30 02:55:08;;;;;;;;;30.33;26.67;;;;;15.26;89.73;101575.53;5101331;27;45430;-77
2023/04/30 02:57:34;;;;;;;;;31.00;31.00;;;;;15.24;89.99;101576.75;5101227;27;45394;-77
2023/04/30 02:59:59;;;;;;;;;28.00;27.67;;;;;15.32;89.78;101590.03;5100983;27;45309;-77
2023/04/30 03:02:24;;;;;;;;;32.00;28.33;;;;;15.27;90.38;101579.03;5101355;27;45290;-77
2023/04/30 03:04:50;;;;;;;;;28.00;27.33;;;;;15.30;90.41;101580.53;5100433;27;55599;-78
2023/04/30 03:07:15;;;;;;;;;29.33;26.67;;;;;15.02;90.21;101540.00;5082493;27;45302;-77
2023/04/30 03:09:40;;;;;;;;;31.00;29.67;;;;;15.24;90.23;101566.03;5101524;27;45449;-78
2023/04/30 03:12:05;;;;;;;;;31.00;27.67;;;;;15.22;91.01;101568.03;5082456;27;49805;-77
2023/04/30 03:14:31;;;;;;;;;30.67;30.00;;;;;15.21;91.15;101571.75;5101167;27;45650;-77
2023/04/30 03:16:56;;;;;;;;;25.33;25.00;;;;;15.04;90.84;101541.63;5101259;27;45346;-78
2023/04/30 03:19:24;;;;;;;;;29.67;29.00;;;;;15.18;90.83;101570.28;5101046;27;45326;-77
2023/04/30 03:21:50;;;;;;;;;27.67;25.33;;;;;15.09;91.15;101563.34;5101166;27;45265;-77
2023/04/30 03:24:16;;;;;;;;;28.67;28.33;;;;;15.12;91.12;101562.97;5100848;27;46156;-77
2023/04/30 03:26:41;;;;;;;;;24.67;24.33;;;;;15.17;91.11;101568.59;5082457;27;45248;-77
2023/04/30 03:29:06;;;;;;;;;27.67;22.00;;;;;15.19;90.98;101571.94;5082665;27;45238;-76
2023/04/30 03:31:32;;;;;;;;;29.67;27.67;;;;;15.21;91.19;101564.56;5100789;27;45252;-77
2023/04/30 03:33:57;;;;;;;;;31.67;29.33;;;;;15.13;90.94;101556.59;5081800;27;59957;-77
2023/04/30 03:36:22;;;;;;;;;32.67;27.67;;;;;15.17;91.19;101557.88;5082271;27;45353;-77
2023/04/30 03:38:48;;;;;;;;;31.33;28.00;;;;;15.17;91.17;101568.59;5100641;27;45271;-77
2023/04/30 03:41:13;;;;;;;;;28.67;27.67;;;;;15.18;91.38;101567.59;5100604;27;50165;-77
2023/04/30 03:43:38;;;;;;;;;33.33;28.00;;;;;15.14;91.38;101560.94;5100647;27;45310;-77
2023/04/30 03:46:04;;;;;;;;;29.33;29.00;;;;;15.27;91.11;101557.63;5100720;27;45324;-76
2023/04/30 03:48:29;;;;;;;;;39.00;32.67;;;;;15.20;91.02;101554.03;5100609;27;45321;-77
2023/04/30 03:50:54;;;;;;;;;29.00;28.67;;;;;15.22;91.27;101558.19;5100528;27;45417;-77
2023/04/30 03:53:20;;;;;;;;;30.67;29.00;;;;;15.23;90.67;101559.00;5100566;27;46095;-76
2023/04/30 03:55:45;;;;;;;;;34.00;30.33;;;;;15.25;90.98;101563.16;5100500;27;45371;-77
2023/04/30 03:58:11;;;;;;;;;31.33;28.00;;;;;15.05;91.31;101546.81;5100707;27;45366;-77
2023/04/30 04:00:37;;;;;;;;;30.33;29.67;;;;;15.19;91.17;101555.03;5100394;27;45441;-77
2023/04/30 04:03:03;;;;;;;;;27.67;26.67;;;;;15.13;91.34;101561.97;5099775;27;46468;-77
2023/04/30 04:05:28;;;;;;;;;30.00;29.00;;;;;15.10;91.39;101568.53;5065065;27;45449;-77
2023/04/30 04:07:53;;;;;;;;;32.67;31.33;;;;;15.12;91.27;101565.66;5100374;27;45321;-77
2023/04/30 04:10:19;;;;;;;;;32.00;30.00;;;;;15.12;91.38;101560.31;5080549;27;49855;-77
2023/04/30 04:12:45;;;;;;;;;34.67;32.67;;;;;15.09;91.61;101555.31;5081619;27;47566;-77
2023/04/30 04:15:10;;;;;;;;;29.33;29.00;;;;;15.09;91.31;101547.28;5081997;27;45518;-77
2023/04/30 04:17:36;;;;;;;;;36.00;30.67;;;;;15.16;91.61;101569.63;5099928;27;45289;-77
2023/04/30 04:20:01;;;;;;;;;32.33;30.00;;;;;15.14;91.33;101559.09;5100156;27;45618;-77
2023/04/30 04:22:26;;;;;;;;;25.67;25.67;;;;;15.14;91.36;101561.78;5100127;27;46095;-77
2023/04/30 04:24:52;;;;;;;;;32.67;31.67;;;;;15.16;91.02;101556.25;5081513;27;53714;-78
2023/04/30 04:27:18;;;;;;;;;33.00;29.67;;;;;15.11;91.25;101551.44;5081848;27;45528;-77
2023/04/30 04:29:43;;;;;;;;;29.00;27.00;;;;;15.10;91.53;101544.44;5081548;27;46488;-78
2023/04/30 04:32:09;;;;;;;;;34.67;32.67;;;;;15.19;91.43;101558.53;5081139;27;49166;-77
2023/04/30 04:34:34;;;;;;;;;34.33;29.33;;;;;15.18;91.07;101556.91;5081334;27;45388;-78
2023/04/30 04:37:00;;;;;;;;;31.67;28.67;;;;;15.10;91.62;101541.75;5099912;27;45391;-78
2023/04/30 04:39:25;;;;;;;;;29.33;27.33;;;;;15.15;91.73;101554.59;5081447;27;45757;-78
2023/04/30 04:41:50;;;;;;;;;31.33;28.67;;;;;15.20;91.64;101564.75;5099935;27;46592;-78
2023/04/30 04:44:17;;;;;;;;;24.33;23.33;;;;;15.08;91.54;101543.78;5081161;27;47784;-78
2023/04/30 04:46:43;;;;;;;;;38.33;34.33;;;;;15.19;91.58;101563.06;5100016;27;45277;-78
2023/04/30 04:49:08;;;;;;;;;38.33;34.33;;;;;15.17;91.83;101549.03;5099576;27;45548;-78
2023/04/30 04:51:34;;;;;;;;;27.67;27.33;;;;;14.98;91.70;101524.47;5099390;27;45517;-77
2023/04/30 04:53:59;;;;;;;;;33.67;31.67;;;;;15.17;91.86;101554.41;5081239;27;45392;-78
2023/04/30 04:56:24;;;;;;;;;34.00;30.67;;;;;15.19;91.43;101560.38;5078215;28;45321;-77
2023/04/30 04:58:50;;;;;;;;;30.67;27.67;;;;;15.21;92.10;101553.00;5095054;27;45315;-77
2023/04/30 05:01:15;;;;;;;;;31.00;29.00;;;;;15.22;91.52;101558.19;5099580;27;45357;-78
2023/04/30 05:03:40;;;;;;;;;35.33;32.00;;;;;15.25;91.51;101565.84;5099468;27;45171;-78
2023/04/30 05:06:06;;;;;;;;;33.67;31.33;;;;;15.30;91.61;101578.69;5099625;27;45789;-77
2023/04/30 05:08:31;;;;;;;;;33.00;31.00;;;;;15.35;91.81;101573.59;5099255;27;56101;-77
2023/04/30 05:10:57;;;;;;;;;28.67;28.00;;;;;15.36;92.23;101580.59;5099447;27;46120;-77
2023/04/30 05:13:22;;;;;;;;;34.33;31.00;;;;;15.32;91.68;101570.47;5081182;27;45242;-77
2023/04/30 05:15:52;;;;;;;;;33.67;30.67;;;;;15.38;91.77;101577.72;5081293;27;45312;-78
2023/04/30 05:18:18;;;;;;;;;23.67;23.00;;;;;15.39;92.48;101587.44;5099263;27;45491;-77
2023/04/30 05:20:43;;;;;;;;;30.67;30.00;;;;;15.40;92.40;101583.75;5099086;27;45489;-77
2023/04/30 05:23:08;;;;;;;;;34.00;32.33;;;;;15.38;92.14;101572.38;5102540;27;45404;-77
2023/04/30 05:25:37;;;;;;;;;32.67;31.00;;;;;15.53;91.93;101583.06;5103140;27;45175;-77
2023/04/30 05:28:03;;;;;;;;;31.33;30.00;;;;;15.56;91.61;101588.06;5102797;27;45381;-77
2023/04/30 05:30:29;;;;;;;;;29.33;27.67;;;;;15.57;91.65;101583.53;5080713;28;46120;-77
2023/04/30 05:32:55;;;;;;;;;35.00;31.33;;;;;15.60;92.11;101586.69;5097934;27;45332;-77
2023/04/30 05:35:21;;;;;;;;;40.00;33.00;;;;;15.69;91.19;101586.56;5084152;27;45384;-77
2023/04/30 05:37:47;;;;;;;;;34.33;30.33;;;;;15.68;91.42;101585.72;5102435;27;45517;-77
2023/04/30 05:40:12;;;;;;;;;37.67;33.00;;;;;15.70;91.41;101599.78;5082596;27;47518;-78
2023/04/30 05:42:39;;;;;;;;;36.33;32.33;;;;;15.74;91.67;101600.22;5080767;28;45351;-78
2023/04/30 05:45:05;;;;;;;;;40.33;35.67;;;;;15.72;92.45;101591.56;5081686;27;45259;-77
2023/04/30 05:47:31;;;;;;;;;36.33;31.00;;;;;15.84;91.63;101598.09;5063356;28;46068;-77
2023/04/30 05:49:56;;;;;;;;;39.67;34.00;;;;;15.84;91.63;101592.75;5097826;27;57799;-77
2023/04/30 05:52:22;;;;;;;;;37.33;33.00;;;;;15.87;90.78;101591.53;5083548;27;45185;-77
2023/04/30 05:54:47;;;;;;;;;40.33;33.67;;;;;15.92;91.37;101597.13;5080732;28;45357;-78
2023/04/30 05:57:13;;;;;;;;;33.00;30.67;;;;;15.95;91.36;101599.44;5082149;27;55356;-78
2023/04/30 05:59:38;;;;;;;;;35.33;32.67;;;;;16.01;91.28;101603.25;5102342;27;46389;-78
2023/04/30 06:02:03;;;;;;;;;36.33;32.67;;;;;16.06;91.94;101600.00;5102328;27;45402;-78
2023/04/30 06:04:29;;;;;;;;;41.00;35.33;;;;;16.14;91.75;101605.25;5080329;28;45303;-77
2023/04/30 06:06:55;;;;;;;;;37.33;33.67;;;;;16.17;91.85;101596.84;5097893;27;45311;-77
2023/04/30 06:09:20;;;;;;;;;44.33;36.00;;;;;16.24;90.69;101591.50;5082593;27;47482;-78
2023/04/30 06:11:49;;;;;;;;;37.67;33.00;;;;;16.26;91.80;101594.84;5080299;28;45726;-77
2023/04/30 06:14:15;;;;;;;;;35.00;30.67;;;;;16.26;91.76;101594.84;5081775;28;45403;-78
2023/04/30 06:16:40;;;;;;;;;37.00;33.33;;;;;16.41;91.50;101602.84;5095709;27;45447;-78
2023/04/30 06:19:05;;;;;;;;;41.00;35.33;;;;;16.45;91.59;101588.00;5101513;27;45192;-78
2023/04/30 06:21:31;;;;;;;;;36.00;33.00;;;;;16.45;91.79;101584.47;5101709;27;45284;-78
2023/04/30 06:23:56;;;;;;;;;43.33;37.33;;;;;16.46;90.38;101578.13;5080209;28;45320;-79
2023/04/30 06:26:21;;;;;;;;;45.67;35.67;;;;;16.49;90.20;101573.19;5082740;27;55725;-78
2023/04/30 06:28:47;;;;;;;;;38.33;34.00;;;;;16.38;89.73;101561.09;5101392;27;45313;-78
2023/04/30 06:31:12;;;;;;;;;41.00;34.00;;;;;16.59;90.51;101602.38;5101757;27;45624;-78
2023/04/30 06:33:37;;;;;;;;;42.67;37.00;;;;;16.61;90.56;101603.00;5100107;27;45312;-78
2023/04/30 06:36:03;;;;;;;;;44.33;36.33;;;;;16.59;90.90;101588.13;5083033;27;47086;-78
2023/04/30 06:38:28;;;;;;;;;45.67;38.00;;;;;16.68;89.64;101581.59;5101473;27;45388;-78
2023/04/30 06:40:54;;;;;;;;;44.00;37.33;;;;;16.73;90.08;101583.69;5083053;27;45317;-79
2023/04/30 06:43:19;;;;;;;;;43.00;37.33;;;;;16.83;89.77;101583.34;5083213;27;45277;-78
2023/04/30 06:45:45;;;;;;;;;37.67;33.33;;;;;16.88;90.37;101581.72;5101506;27;45515;-77
2023/04/30 06:48:10;;;;;;;;;40.33;33.67;;;;;16.95;89.93;101595.22;5082709;27;47785;-77
2023/04/30 06:50:42;;;;;;;;;44.67;36.33;;;;;16.92;90.21;101572.25;5101247;27;45350;-77
2023/04/30 06:53:08;;;;;;;;;45.67;35.67;;;;;17.15;90.26;101600.72;5101212;27;45317;-78
2023/04/30 06:55:33;;;;;;;;;45.67;36.00;;;;;17.23;89.75;101602.44;5101152;27;45678;-77
2023/04/30 06:57:58;;;;;;;;;46.00;37.00;;;;;17.28;90.46;101609.91;5082685;27;47870;-77
2023/04/30 07:00:24;;;;;;;;;45.33;38.00;;;;;17.27;89.39;101602.88;5082841;27;45336;-77
2023/04/30 07:02:50;;;;;;;;;48.67;39.00;;;;;17.34;90.11;101610.97;5082771;27;45568;-77
2023/04/30 07:05:16;;;;;;;;;43.33;37.33;;;;;17.42;89.92;101603.56;5101122;27;45495;-78
2023/04/30 07:07:41;;;;;;;;;44.33;36.33;;;;;17.48;89.49;101612.69;5082574;27;47454;-78
2023/04/30 07:10:07;;;;;;;;;46.33;38.00;;;;;17.59;88.97;101613.13;5082619;27;45393;-77
2023/04/30 07:12:32;;;;;;;;;41.67;36.00;;;;;17.59;88.43;101613.13;5101257;27;45330;-78
2023/04/30 07:14:58;;;;;;;;;45.00;38.00;;;;;17.47;87.99;101592.22;5101032;27;45367;-78
2023/04/30 07:17:24;;;;;;;;;46.33;38.33;;;;;17.57;88.45;101604.47;5100856;27;46368;-77
2023/04/30 07:19:49;;;;;;;;;46.67;39.33;;;;;17.31;88.63;101557.63;5100870;27;45311;-78
2023/04/30 07:22:14;;;;;;;;;46.33;38.00;;;;;17.60;89.32;101594.13;5082415;27;45326;-78
2023/04/30 07:24:40;;;;;;;;;48.33;38.33;;;;;17.65;88.69;101607.81;5082380;27;45463;-77
2023/04/30 07:27:06;;;;;;;;;45.33;37.00;;;;;17.71;89.03;101616.06;5082346;27;47249;-77
2023/04/30 07:29:32;;;;;;;;;45.33;38.33;;;;;17.77;89.02;101613.44;5100798;27;45257;-77
2023/04/30 07:31:57;;;;;;;;;41.33;35.67;;;;;17.81;88.71;101613.03;5100777;27;45292;-77
2023/04/30 07:34:23;;;;;;;;;42.67;36.00;;;;;17.93;88.90;101624.88;5082143;27;47103;-77
2023/04/30 07:36:48;;;;;;;;;43.67;35.33;;;;;17.90;88.29;101607.25;5082127;27;47132;-77
2023/04/30 07:39:14;;;;;;;;;45.67;38.00;;;;;17.97;87.93;101619.91;5100781;27;45308;-78
2023/04/30 07:41:39;;;;;;;;;40.33;32.67;;;;;17.96;87.61;101613.69;5100578;27;45440;-78
2023/04/30 07:44:05;;;;;;;;;46.00;39.00;;;;;18.00;88.48;101627.56;5081975;27;46069;-78
2023/04/30 07:46:31;;;;;;;;;48.00;38.33;;;;;17.97;87.94;101618.06;5082120;27;48374;-78
2023/04/30 07:48:57;;;;;;;;;44.33;38.00;;;;;17.96;88.35;101610.19;5082031;27;46063;-77
2023/04/30 07:51:22;;;;;;;;;44.67;37.67;;;;;18.08;88.57;101624.69;5100607;27;45310;-77
2023/04/30 07:53:47;;;;;;;;;46.67;39.00;;;;;18.17;89.27;101620.81;5100356;27;45435;-77
2023/04/30 07:56:12;;;;;;;;;47.67;38.33;;;;;18.23;89.02;101615.66;5100101;27;53482;-78
2023/04/30 07:58:38;;;;;;;;;45.00;38.00;;;;;18.27;88.99;101608.81;5100234;27;52292;-77
2023/04/30 08:01:03;;;;;;;;;42.00;36.67;;;;;18.36;88.81;101604.91;5082152;27;45229;-77
2023/04/30 08:03:28;;;;;;;;;41.67;35.67;;;;;18.46;89.13;101607.19;5081695;27;45337;-77
2023/04/30 08:05:54;;;;;;;;;44.00;37.00;;;;;18.60;89.40;101609.88;5099848;27;56079;-77
2023/04/30 08:08:19;;;;;;;;;44.33;38.33;;;;;18.71;88.34;101603.91;5100472;27;45217;-77
2023/04/30 08:10:45;;;;;;;;;47.00;39.67;;;;;18.84;87.43;101618.38;5100734;27;45234;-78
2023/04/30 08:13:10;;;;;;;;;40.67;34.00;;;;;18.80;87.73;101591.84;5099953;27;46699;-78
2023/04/30 08:15:37;;;;;;;;;44.33;38.67;;;;;18.93;87.69;101601.78;5081816;27;48216;-78
2023/04/30 08:18:02;;;;;;;;;41.67;33.67;;;;;18.96;87.63;101595.16;5081583;27;46016;-78
2023/04/30 08:20:28;;;;;;;;;48.00;39.67;;;;;19.22;87.03;101614.19;5081853;27;45337;-78
2023/04/30 08:22:53;;;;;;;;;48.00;39.67;;;;;19.28;87.20;101608.78;5081754;27;47404;-78
2023/04/30 08:25:19;;;;;;;;;49.33;40.67;;;;;19.29;86.77;101610.44;5100268;27;45276;-78
2023/04/30 08:27:45;;;;;;;;;48.00;40.00;;;;;19.32;86.79;101592.19;5100227;27;45501;-77
2023/04/30 08:30:10;;;;;;;;;44.67;37.67;;;;;19.50;86.38;101607.69;5100033;27;45387;-77
2023/04/30 08:32:36;;;;;;;;;43.00;36.33;;;;;19.59;86.95;101598.31;5099497;27;45476;-78
2023/04/30 08:35:06;;;;;;;;;43.67;38.00;;;;;19.63;86.39;101585.25;5099973;27;45339;-78
2023/04/30 08:37:31;;;;;;;;;45.00;37.00;;;;;19.76;86.40;101595.13;5099675;27;45279;-78
2023/04/30 08:39:57;;;;;;;;;45.67;37.33;;;;;19.89;85.67;101599.63;5078297;28;45475;-77
2023/04/30 08:42:31;;;;;;;;;44.33;37.00;;;;;20.05;84.92;101603.69;5099716;27;45414;-78
2023/04/30 08:45:00;;;;;;;;;45.33;37.67;;;;;20.06;84.41;101599.97;5099831;27;45282;-77
2023/04/30 08:47:26;;;;;;;;;42.00;35.00;;;;;20.11;83.66;101602.03;5091389;27;45589;-78
2023/04/30 08:49:52;;;;;;;;;43.00;36.67;;;;;20.13;83.67;101583.72;5078122;28;45410;-77
2023/04/30 08:52:18;;;;;;;;;45.00;37.00;;;;;20.20;83.85;101579.09;5098507;27;45387;-77
2023/04/30 08:54:43;;;;;;;;;43.00;36.00;;;;;20.31;83.02;101589.22;5077992;28;48025;-77
2023/04/30 08:57:09;;;;;;;;;44.33;37.00;;;;;20.42;83.17;101578.75;5080934;27;45827;-77
2023/04/30 08:59:35;;;;;;;;;40.67;34.00;;;;;20.50;83.41;101583.88;5103437;27;45214;-77
2023/04/30 09:02:00;;;;;;;;;43.00;37.00;;;;;20.66;83.45;101592.47;5081413;27;46276;-77
2023/04/30 09:04:26;;;;;;;;;41.33;34.67;;;;;20.81;82.27;101584.81;5081068;28;48044;-77
2023/04/30 09:06:57;;;;;;;;;44.67;37.00;;;;;20.88;81.01;101590.19;5098459;27;45220;-78
2023/04/30 09:09:28;;;;;;;;;48.00;37.33;;;;;20.87;81.81;101572.31;5103256;27;45282;-79
2023/04/30 09:12:14;;;;;;;;;43.00;34.33;;;;;21.05;81.31;101576.94;5102689;27;45520;-79
2023/04/30 09:14:40;;;;;;;;;40.67;35.33;;;;;21.08;79.49;101564.03;5098410;27;45660;-79
2023/04/30 09:17:07;;;;;;;;;39.67;33.33;;;;;21.23;79.36;101586.09;5102859;27;45567;-79
2023/04/30 09:19:33;;;;;;;;;40.33;33.67;;;;;21.26;78.98;101572.13;5102708;27;45338;-77
2023/04/30 09:21:58;;;;;;;;;40.67;35.00;;;;;21.22;79.00;101575.50;5102688;27;45298;-78
2023/04/30 09:24:48;;;;;;;;;42.33;35.00;;;;;21.34;79.19;101581.00;5102916;27;45417;-79
2023/04/30 09:27:18;;;;;;;;;40.00;34.00;;;;;21.46;78.50;101581.88;5078416;27;45350;-77
2023/04/30 09:41:20;;;;;;;;;37.33;33.00;;;;;21.83;75.07;101570.19;4907464;28;45452;-79
2023/04/30 09:51:02;;;;;;;;;33.00;30.67;;;;;21.96;76.27;101552.13;4930676;28;46962;-78
2023/04/30 09:57:08;;;;;;;;;;;;;;;;;;;;;
2023/04/30 10:00:03;;;;;;;;;38.00;33.67;;;;;21.83;74.53;101518.78;4939568;28;72455;-77
2023/04/30 10:03:07;;;;;;;;;36.00;31.67;;;;;22.15;74.58;101514.97;4934813;28;47031;-77
2023/04/30 10:05:49;;;;;;;;;34.00;30.33;;;;;22.16;74.99;101535.56;4998898;28;45485;-78
2023/04/30 10:09:00;;;;;;;;;31.67;29.67;;;;;22.06;74.99;101501.75;5002280;28;45377;-77
2023/04/30 10:11:43;;;;;;;;;33.00;30.00;;;;;22.27;73.84;101526.59;4972742;28;45586;-77
2023/04/30 10:14:37;;;;;;;;;;;;;;;;;;;;;
2023/04/30 10:17:12;;;;;;;;;37.00;31.67;;;;;22.27;71.11;101515.78;4980857;28;71895;-76
2023/04/30 10:20:04;;;;;;;;;33.00;29.67;;;;;22.61;72.41;101555.03;5045827;28;45484;-77
2023/04/30 10:22:31;;;;;;;;;35.33;30.00;;;;;22.46;73.54;101518.38;5072337;28;45513;-77
2023/04/30 10:25:26;;;;;;;;;33.00;30.33;;;;;22.46;73.17;101504.84;5061719;28;48417;-77
2023/04/30 10:28:00;;;;;;;;;30.33;30.00;;;;;22.88;71.86;101547.25;5081302;28;45260;-77
2023/04/30 10:30:25;;;;;;;;;33.67;29.00;;;;;22.76;71.76;101503.91;5097803;27;45256;-77
2023/04/30 10:33:00;;;;;;;;;33.33;30.33;;;;;23.16;71.78;101542.94;5082606;27;46336;-77
2023/04/30 10:35:37;;;;;;;;;28.00;25.67;;;;;23.06;71.01;101507.50;5101568;27;45325;-77
2023/04/30 10:38:29;;;;;;;;;33.33;29.67;;;;;23.41;69.69;101513.88;5083174;27;45258;-77
2023/04/30 10:41:01;;;;;;;;;35.67;32.00;;;;;23.34;70.06;101478.72;5101758;27;45475;-77
2023/04/30 10:44:11;;;;;;;;;34.00;30.67;;;;;23.74;68.14;101530.47;5083073;27;46074;-77
2023/04/30 10:46:48;;;;;;;;;31.33;29.67;;;;;23.56;67.29;101510.63;5087325;27;46490;-77
2023/04/30 10:49:34;;;;;;;;;28.67;28.00;;;;;23.42;66.75;101488.41;5082809;27;45378;-77
2023/04/30 10:52:12;;;;;;;;;29.00;28.00;;;;;23.25;67.20;101464.75;5100498;27;45519;-77
2023/04/30 10:54:42;;;;;;;;;25.67;25.33;;;;;23.16;66.19;101472.44;5101138;27;45264;-77
2023/04/30 11:05:24;;;;;;;;;;;;;;;;;;;;;
2023/04/30 11:08:10;;;;;;;;;20.00;20.00;;;;;23.83;64.31;101510.03;5075507;28;45177;-77
2023/04/30 11:10:35;;;;;;;;;25.33;24.33;;;;;23.86;64.52;101478.84;5062204;28;47661;-77
2023/04/30 11:13:05;;;;;;;;;27.33;26.67;;;;;24.08;63.37;101504.19;5080549;28;45389;-77
2023/04/30 11:15:38;;;;;;;;;21.67;21.67;;;;;24.04;61.30;101499.50;5080906;28;45318;-77
2023/04/30 11:18:03;;;;;;;;;22.67;21.33;;;;;24.03;60.81;101490.50;5080309;28;45500;-77
2023/04/30 11:20:29;;;;;;;;;25.33;24.00;;;;;24.30;61.33;101491.78;5079575;28;53011;-77
2023/04/30 11:23:14;;;;;;;;;23.33;23.33;;;;;24.57;61.03;101486.44;5080578;28;45349;-77
2023/04/30 11:25:42;;;;;;;;;22.67;22.33;;;;;24.70;58.28;101495.31;5080178;28;45394;-77
2023/04/30 11:28:27;;;;;;;;;24.00;22.67;;;;;24.87;58.49;101495.25;5095346;27;45449;-77
2023/04/30 11:30:54;;;;;;;;;23.00;23.00;;;;;24.88;58.82;101494.22;5080117;28;46058;-78
2023/04/30 11:33:21;;;;;;;;;23.00;23.00;;;;;24.90;57.51;101491.25;5079683;28;45418;-77
2023/04/30 11:35:51;;;;;;;;;20.67;20.67;;;;;25.00;57.36;101491.34;5080308;28;45219;-77
2023/04/30 11:38:20;;;;;;;;;23.00;22.67;;;;;25.04;57.73;101486.22;5061698;28;46118;-77
2023/04/30 11:40:47;;;;;;;;;21.00;19.67;;;;;25.11;55.56;101492.28;5080037;28;45324;-77
2023/04/30 11:43:23;;;;;;;;;22.67;21.00;;;;;25.11;54.76;101491.47;5061874;28;45360;-78
2023/04/30 11:46:01;;;;;;;;;19.33;18.33;;;;;25.00;54.64;101485.09;5080350;28;45386;-77
2023/04/30 11:48:39;;;;;;;;;22.00;21.00;;;;;24.89;55.24;101473.25;5079818;28;45448;-77
2023/04/30 11:51:18;;;;;;;;;19.00;19.00;;;;;25.02;54.37;101482.94;5079679;28;46317;-77